createdAt,value
2024-04-23T00:01:06.510Z,95.96
2024-04-23T00:03:33.229Z,95.73
2024-04-23T00:06:00.018Z,95.89
2024-04-23T00:08:27.015Z,96.52
2024-04-23T00:10:53.960Z,96.84
2024-04-23T00:13:20.847Z,96.88
2024-04-23T00:15:47.743Z,95.62
2024-04-23T00:18:14.602Z,95.02
2024-04-23T00:20:41.399Z,94.93
2024-04-23T00:23:08.067Z,94.43
2024-04-23T00:25:34.793Z,94.15
2024-04-23T00:28:01.642Z,93.88
2024-04-23T00:30:28.492Z,93.39
2024-04-23T00:32:55.263Z,94.96
2024-04-23T00:35:22.132Z,95.64
2024-04-23T00:37:49.129Z,96.42
2024-04-23T00:40:15.798Z,97.12
2024-04-23T00:42:42.690Z,97.71
2024-04-23T00:45:10.879Z,98.71
2024-04-23T00:47:37.767Z,98.83
2024-04-23T00:50:04.742Z,97.85
2024-04-23T00:52:32.391Z,97.76
2024-04-23T00:54:59.481Z,98.51
2024-04-23T00:57:26.413Z,99.28
2024-04-23T00:59:53.627Z,99.23
2024-04-23T01:02:20.509Z,100.00
2024-04-23T01:04:47.555Z,100.00
2024-04-23T01:07:14.482Z,100.00
2024-04-23T01:09:41.318Z,100.00
2024-04-23T01:12:08.315Z,100.00
2024-04-23T01:14:38.429Z,100.00
2024-04-23T01:17:06.361Z,100.00
2024-04-23T01:19:40.779Z,100.00
2024-04-23T01:22:16.014Z,100.00
2024-04-23T01:25:07.308Z,100.00
2024-04-23T01:27:35.000Z,100.00
2024-04-23T01:30:02.102Z,100.00
2024-04-23T01:32:30.886Z,100.00
2024-04-23T01:35:09.563Z,100.00
2024-04-23T01:37:37.431Z,100.00
2024-04-23T01:40:05.196Z,99.13
2024-04-23T01:42:33.654Z,98.74
2024-04-23T01:45:01.686Z,98.01
2024-04-23T01:47:28.707Z,97.94
2024-04-23T01:49:56.737Z,97.83
2024-04-23T01:52:23.832Z,97.83
2024-04-23T01:54:50.892Z,97.55
2024-04-23T01:57:18.546Z,96.95
2024-04-23T01:59:54.911Z,97.32
2024-04-23T02:02:22.675Z,97.47
2024-04-23T02:04:49.862Z,97.26
2024-04-23T02:07:18.054Z,97.14
2024-04-23T02:09:47.120Z,97.31
2024-04-23T02:12:18.249Z,96.53
2024-04-23T02:14:44.941Z,96.39
2024-04-23T02:17:12.915Z,96.25
2024-04-23T02:19:39.904Z,96.45
2024-04-23T02:22:06.764Z,96.47
2024-04-23T02:24:33.508Z,96.30
2024-04-23T02:27:00.699Z,96.15
2024-04-23T02:29:27.534Z,96.27
2024-04-23T02:31:54.325Z,96.34
2024-04-23T02:34:21.281Z,96.17
2024-04-23T02:36:48.102Z,95.83
2024-04-23T02:39:14.902Z,95.60
2024-04-23T02:41:51.868Z,95.84
2024-04-23T02:44:19.287Z,95.97
2024-04-23T02:46:46.789Z,95.47
2024-04-23T02:49:13.633Z,95.22
2024-04-23T02:51:50.441Z,95.35
2024-04-23T02:54:17.214Z,95.64
2024-04-23T02:56:49.206Z,95.36
2024-04-23T02:59:16.585Z,95.35
2024-04-23T03:01:43.262Z,95.42
2024-04-23T03:04:10.167Z,95.66
2024-04-23T03:06:36.901Z,95.09
2024-04-23T03:09:04.011Z,95.21
2024-04-23T03:11:31.086Z,95.57
2024-04-23T03:13:57.923Z,96.02
2024-04-23T03:16:24.990Z,97.16
2024-04-23T03:18:51.704Z,98.02
2024-04-23T03:21:18.589Z,99.04
2024-04-23T03:23:45.391Z,98.60
2024-04-23T03:26:12.305Z,98.87
2024-04-23T03:28:39.090Z,99.00
2024-04-23T03:31:05.961Z,99.77
2024-04-23T03:33:32.821Z,100.00
2024-04-23T03:35:59.638Z,100.00
2024-04-23T03:38:26.631Z,99.63
2024-04-23T03:40:53.387Z,99.10
2024-04-23T03:43:20.168Z,99.17
2024-04-23T03:45:47.010Z,98.67
2024-04-23T03:48:13.999Z,98.07
2024-04-23T03:50:40.717Z,98.14
2024-04-23T03:53:07.573Z,97.90
2024-04-23T03:55:34.368Z,97.56
2024-04-23T03:58:01.242Z,97.10
2024-04-23T04:00:28.939Z,97.47
2024-04-23T04:03:14.304Z,97.23
2024-04-23T04:05:59.618Z,96.42
2024-04-23T04:08:26.406Z,96.47
2024-04-23T04:10:53.318Z,96.65
2024-04-23T04:13:23.901Z,96.82
2024-04-23T04:15:51.969Z,96.59
2024-04-23T04:18:19.845Z,96.39
2024-04-23T04:20:47.053Z,96.29
2024-04-23T04:23:13.850Z,96.49
2024-04-23T04:25:40.810Z,96.42
2024-04-23T04:28:07.745Z,96.38
2024-04-23T04:30:34.425Z,96.35
2024-04-23T04:33:01.401Z,96.53
2024-04-23T04:35:28.379Z,96.21
2024-04-23T04:37:56.396Z,96.03
2024-04-23T04:40:23.361Z,95.73
2024-04-23T04:42:52.210Z,95.53
2024-04-23T04:45:19.656Z,95.60
2024-04-23T04:47:50.346Z,95.70
2024-04-23T04:50:20.791Z,95.79
2024-04-23T04:52:47.948Z,95.78
2024-04-23T04:55:14.851Z,96.03
2024-04-23T04:57:41.850Z,96.00
2024-04-23T05:00:09.261Z,95.75
2024-04-23T05:02:36.012Z,95.73
2024-04-23T05:05:03.036Z,95.65
2024-04-23T05:07:29.984Z,95.87
2024-04-23T05:09:57.112Z,96.05
2024-04-23T05:12:23.980Z,96.31
2024-04-23T05:14:50.818Z,96.59
2024-04-23T05:17:17.630Z,96.75
2024-04-23T05:19:45.969Z,95.96
2024-04-23T05:22:13.351Z,95.95
2024-04-23T05:24:40.492Z,96.09
2024-04-23T05:27:07.538Z,96.15
2024-04-23T05:29:34.283Z,95.59
2024-04-23T05:32:19.687Z,95.00
2024-04-23T05:34:46.705Z,94.10
2024-04-23T05:37:13.603Z,94.27
2024-04-23T05:39:40.379Z,93.36
2024-04-23T05:42:07.293Z,92.59
2024-04-23T05:44:34.113Z,92.05
2024-04-23T05:47:01.056Z,91.43
2024-04-23T05:50:05.578Z,91.80
2024-04-23T05:53:10.044Z,91.68
2024-04-23T05:55:39.727Z,92.09
2024-04-23T05:58:06.954Z,92.25
2024-04-23T06:00:34.580Z,92.16
2024-04-23T06:03:02.157Z,92.78
2024-04-23T06:05:29.209Z,94.69
2024-04-23T06:07:56.807Z,95.87
2024-04-23T06:10:23.691Z,96.38
2024-04-23T06:12:51.342Z,96.69
2024-04-23T06:15:19.216Z,96.79
2024-04-23T06:17:48.274Z,96.08
2024-04-23T06:20:16.162Z,95.24
2024-04-23T06:22:44.125Z,95.11
2024-04-23T06:25:11.678Z,95.29
2024-04-23T06:27:40.038Z,95.75
2024-04-23T06:30:07.939Z,95.87
2024-04-23T06:32:34.910Z,96.07
2024-04-23T06:35:03.734Z,96.54
2024-04-23T06:37:30.924Z,96.77
2024-04-23T06:40:03.285Z,94.99
2024-04-23T06:42:30.181Z,95.86
2024-04-23T06:44:58.879Z,97.83
2024-04-23T06:47:26.205Z,97.35
2024-04-23T06:49:53.121Z,95.39
2024-04-23T06:52:19.924Z,93.88
2024-04-23T06:54:46.775Z,92.67
2024-04-23T06:57:14.287Z,95.48
2024-04-23T06:59:44.275Z,96.89
2024-04-23T07:02:12.568Z,97.68
2024-04-23T07:04:39.728Z,97.14
2024-04-23T07:07:07.005Z,96.38
2024-04-23T07:09:34.139Z,95.75
2024-04-23T07:12:00.989Z,93.74
2024-04-23T07:14:27.690Z,90.97
2024-04-23T07:16:54.624Z,90.19
2024-04-23T07:19:21.322Z,88.69
2024-04-23T07:21:48.359Z,88.15
2024-04-23T07:24:15.060Z,87.45
2024-04-23T07:26:43.448Z,87.37
2024-04-23T07:29:10.433Z,88.32
2024-04-23T07:31:37.552Z,88.40
2024-04-23T07:34:04.617Z,85.69
2024-04-23T07:36:31.488Z,85.22
2024-04-23T07:38:58.320Z,84.59
2024-04-23T07:41:25.058Z,83.77
2024-04-23T07:43:52.033Z,83.16
2024-04-23T07:46:18.805Z,81.71
2024-04-23T07:48:45.659Z,79.55
2024-04-23T07:51:12.440Z,77.20
2024-04-23T07:53:39.356Z,77.15
2024-04-23T07:56:08.672Z,76.66
2024-04-23T07:58:39.346Z,70.06
2024-04-23T08:01:06.988Z,71.30
2024-04-23T08:03:35.606Z,71.96
2024-04-23T08:06:03.643Z,74.10
2024-04-23T08:08:30.525Z,70.01
2024-04-23T08:10:57.411Z,70.39
2024-04-23T08:13:24.243Z,69.41
2024-04-23T08:15:51.062Z,68.11
2024-04-23T08:18:17.974Z,71.08
2024-04-23T08:20:44.700Z,74.81
2024-04-23T08:23:11.611Z,74.51
2024-04-23T08:25:38.404Z,73.23
2024-04-23T08:28:05.476Z,72.70
2024-04-23T08:30:33.543Z,71.98
2024-04-23T08:33:00.684Z,70.59
2024-04-23T08:35:27.825Z,71.60
2024-04-23T08:37:54.788Z,72.08
2024-04-23T08:40:22.480Z,64.23
2024-04-23T08:42:53.465Z,67.05
2024-04-23T08:45:26.222Z,68.06
2024-04-23T08:47:53.590Z,72.15
2024-04-23T08:50:23.226Z,75.42
2024-04-23T08:52:50.783Z,71.30
2024-04-23T08:55:18.167Z,72.18
2024-04-23T08:57:45.525Z,73.58
2024-04-23T09:00:13.207Z,71.96
2024-04-23T09:02:42.316Z,69.52
2024-04-23T09:05:10.371Z,70.76
2024-04-23T09:07:38.527Z,69.25
2024-04-23T09:10:07.489Z,68.31
2024-04-23T09:12:35.205Z,66.36
2024-04-23T09:15:02.661Z,65.33
2024-04-23T09:17:33.692Z,65.99
2024-04-23T09:20:06.054Z,64.54
2024-04-23T09:22:33.000Z,66.01
2024-04-23T09:25:06.034Z,66.34
2024-04-23T09:27:38.040Z,67.97
2024-04-23T09:30:05.547Z,71.10
2024-04-23T09:32:32.924Z,74.24
2024-04-23T09:35:00.194Z,73.52
2024-04-23T09:37:27.258Z,72.64
2024-04-23T09:40:02.401Z,72.70
2024-04-23T09:42:29.308Z,70.81
2024-04-23T09:44:56.125Z,72.31
2024-04-23T09:47:26.959Z,71.05
2024-04-23T09:49:55.969Z,70.44
2024-04-23T09:52:34.297Z,69.32
2024-04-23T09:55:02.164Z,68.80
2024-04-23T09:57:29.050Z,70.03
2024-04-23T09:59:55.942Z,69.88
2024-04-23T10:02:30.657Z,69.83
2024-04-23T10:05:08.861Z,70.09
2024-04-23T10:07:53.622Z,67.43
2024-04-23T10:10:27.341Z,67.45
2024-04-23T10:12:57.225Z,66.22
2024-04-23T10:15:33.002Z,66.24
2024-04-23T10:18:25.852Z,66.12
2024-04-23T10:20:54.370Z,66.35
2024-04-23T10:23:21.694Z,65.39
2024-04-23T10:25:49.382Z,63.40
2024-04-23T10:28:16.956Z,63.70
2024-04-23T10:30:44.123Z,64.06
2024-04-23T10:33:13.503Z,64.86
2024-04-23T10:35:40.852Z,64.52
2024-04-23T10:38:09.997Z,62.97
2024-04-23T10:40:46.223Z,63.11
2024-04-23T10:43:19.920Z,63.87
2024-04-23T10:45:47.085Z,64.91
2024-04-23T10:48:14.049Z,64.17
2024-04-23T10:50:40.956Z,64.80
2024-04-23T10:53:09.347Z,63.85
2024-04-23T10:55:36.752Z,63.38
2024-04-23T10:58:03.658Z,62.95
2024-04-23T11:00:38.445Z,65.58
2024-04-23T11:03:18.600Z,64.63
2024-04-23T11:05:49.738Z,64.68
2024-04-23T11:08:27.511Z,62.96
2024-04-23T11:11:00.156Z,65.22
2024-04-23T11:13:45.752Z,65.04
2024-04-23T11:16:21.280Z,64.88
2024-04-23T11:18:54.140Z,64.55
2024-04-23T11:21:32.437Z,64.59
2024-04-23T11:24:07.465Z,64.66
2024-04-23T11:26:37.241Z,65.16
2024-04-23T11:29:10.451Z,65.13
2024-04-23T11:31:37.629Z,66.66
2024-04-23T11:34:04.767Z,66.20
2024-04-23T11:36:36.385Z,64.77
2024-04-23T11:39:08.817Z,66.19
2024-04-23T11:41:35.486Z,63.68
2024-04-23T11:44:03.009Z,62.91
2024-04-23T11:46:33.469Z,64.08
2024-04-23T11:49:00.146Z,63.37
2024-04-23T11:51:26.891Z,62.22
2024-04-23T11:53:56.042Z,66.30
2024-04-23T11:56:23.735Z,64.58
2024-04-23T11:58:50.431Z,64.94
2024-04-23T12:01:17.093Z,64.19
2024-04-23T12:03:44.716Z,64.85
2024-04-23T12:06:12.419Z,64.38
2024-04-23T12:08:39.949Z,62.64
2024-04-23T12:11:07.346Z,61.99
2024-04-23T12:13:34.374Z,62.40
2024-04-23T12:16:05.500Z,62.37
2024-04-23T12:18:32.365Z,63.38
2024-04-23T12:20:59.162Z,62.19
2024-04-23T12:23:26.562Z,61.89
2024-04-23T12:25:54.056Z,62.33
2024-04-23T12:28:22.028Z,63.75
2024-04-23T12:30:48.782Z,62.89
2024-04-23T12:33:15.753Z,62.19
2024-04-23T12:35:43.408Z,62.54
2024-04-23T12:38:14.354Z,63.46
2024-04-23T12:40:41.665Z,63.18
2024-04-23T12:43:12.405Z,62.31
2024-04-23T12:45:39.831Z,61.89
2024-04-23T12:48:06.881Z,59.95
2024-04-23T12:50:33.807Z,62.66
2024-04-23T12:53:00.960Z,63.08
2024-04-23T12:55:29.185Z,60.13
2024-04-23T12:57:55.930Z,59.48
2024-04-23T13:00:22.543Z,60.76
2024-04-23T13:02:49.256Z,59.52
2024-04-23T13:05:16.076Z,59.03
2024-04-23T13:07:42.729Z,59.66
2024-04-23T13:10:09.521Z,62.19
2024-04-23T13:12:36.142Z,59.28
2024-04-23T13:15:02.833Z,59.39
2024-04-23T13:17:29.505Z,59.74
2024-04-23T13:20:00.443Z,60.87
2024-04-23T13:22:28.101Z,60.61
2024-04-23T13:24:54.719Z,57.73
2024-04-23T13:27:21.378Z,57.62
2024-04-23T13:29:48.150Z,59.13
2024-04-23T13:32:15.030Z,60.63
2024-04-23T13:34:41.858Z,60.30
2024-04-23T13:37:08.664Z,59.27
2024-04-23T13:39:35.375Z,56.89
2024-04-23T13:42:02.431Z,58.71
2024-04-23T13:44:33.997Z,59.56
2024-04-23T13:47:01.319Z,59.32
2024-04-23T13:49:28.027Z,60.66
2024-04-23T13:51:54.651Z,60.87
2024-04-23T13:54:21.263Z,60.71
2024-04-23T13:56:48.011Z,58.37
2024-04-23T13:59:17.197Z,57.68
2024-04-23T14:01:44.396Z,56.01
2024-04-23T14:04:12.180Z,57.18
2024-04-23T14:06:38.901Z,57.32
2024-04-23T14:09:05.960Z,58.06
2024-04-23T14:11:32.906Z,60.22
2024-04-23T14:13:59.668Z,62.10
2024-04-23T14:16:26.426Z,62.23
2024-04-23T14:18:53.573Z,63.03
2024-04-23T14:21:20.497Z,62.49
2024-04-23T14:23:47.187Z,62.23
2024-04-23T14:26:18.312Z,61.91
2024-04-23T14:28:45.370Z,62.91
2024-04-23T14:31:12.105Z,61.92
2024-04-23T14:33:44.818Z,61.95
2024-04-23T14:36:13.141Z,62.52
2024-04-23T14:38:40.870Z,63.21
2024-04-23T14:41:08.348Z,64.55
2024-04-23T14:43:35.321Z,61.85
2024-04-23T14:46:12.842Z,62.47
2024-04-23T14:48:40.261Z,62.30
2024-04-23T14:51:07.154Z,62.99
2024-04-23T14:53:34.148Z,61.49
2024-04-23T14:56:02.198Z,62.94
2024-04-23T14:58:30.251Z,63.62
2024-04-23T15:00:57.551Z,63.33
2024-04-23T15:03:24.691Z,62.65
2024-04-23T15:05:51.477Z,64.13
2024-04-23T15:08:18.291Z,64.97
2024-04-23T15:10:53.902Z,63.63
2024-04-23T15:13:23.220Z,63.68
2024-04-23T15:16:02.178Z,64.40
2024-04-23T15:18:33.060Z,66.05
2024-04-23T15:21:08.648Z,66.85
2024-04-23T15:23:35.923Z,64.65
2024-04-23T15:26:03.331Z,65.60
2024-04-23T15:28:34.696Z,64.92
2024-04-23T15:31:02.294Z,65.23
2024-04-23T15:33:29.656Z,63.85
2024-04-23T15:36:09.449Z,64.42
2024-04-23T15:38:37.304Z,64.79
2024-04-23T15:41:05.191Z,63.28
2024-04-23T15:43:32.771Z,63.11
2024-04-23T15:46:00.024Z,64.35
2024-04-23T15:48:29.704Z,64.62
2024-04-23T15:51:00.487Z,63.70
2024-04-23T15:53:30.235Z,63.35
2024-04-23T15:56:01.107Z,63.37
2024-04-23T15:58:31.817Z,64.63
2024-04-23T16:01:09.616Z,63.26
2024-04-23T16:03:37.595Z,63.39
2024-04-23T16:06:05.522Z,63.28
2024-04-23T16:08:33.606Z,63.89
2024-04-23T16:11:02.291Z,63.99
2024-04-23T16:13:30.066Z,65.27
2024-04-23T16:15:58.094Z,65.32
2024-04-23T16:18:27.194Z,64.36
2024-04-23T16:20:54.341Z,62.22
2024-04-23T16:23:22.372Z,62.80
2024-04-23T16:25:49.034Z,63.49
2024-04-23T16:28:15.711Z,64.37
2024-04-23T16:30:43.797Z,63.38
2024-04-23T16:33:10.880Z,63.78
2024-04-23T16:35:40.158Z,64.16
2024-04-23T16:38:07.793Z,63.51
2024-04-23T16:40:34.470Z,63.50
2024-04-23T16:43:01.065Z,63.68
2024-04-23T16:45:27.762Z,64.03
2024-04-23T16:47:54.420Z,63.83
2024-04-23T16:50:21.219Z,64.44
2024-04-23T16:52:47.864Z,66.56
2024-04-23T16:55:14.521Z,66.67
2024-04-23T16:57:43.125Z,65.04
2024-04-23T17:00:10.258Z,67.86
2024-04-23T17:02:36.951Z,68.43
2024-04-23T17:05:03.833Z,67.12
2024-04-23T17:07:32.208Z,66.74
2024-04-23T17:09:59.158Z,66.83
2024-04-23T17:12:26.276Z,68.23
2024-04-23T17:14:52.857Z,67.43
2024-04-23T17:17:19.567Z,67.00
2024-04-23T17:19:46.294Z,67.01
2024-04-23T17:22:12.892Z,66.34
2024-04-23T17:24:39.541Z,66.32
2024-04-23T17:27:06.230Z,67.63
2024-04-23T17:29:32.864Z,69.95
2024-04-23T17:32:01.618Z,70.16
2024-04-23T17:34:31.215Z,68.55
2024-04-23T17:36:58.594Z,67.78
2024-04-23T17:39:25.317Z,67.29
2024-04-23T17:41:52.233Z,66.63
2024-04-23T17:44:18.987Z,68.09
2024-04-23T17:46:45.873Z,69.83
2024-04-23T17:49:12.837Z,71.40
2024-04-23T17:51:39.485Z,73.37
2024-04-23T17:54:06.218Z,74.87
2024-04-23T17:56:33.373Z,73.22
2024-04-23T17:59:00.268Z,72.14
2024-04-23T18:01:26.870Z,73.08
2024-04-23T18:03:53.561Z,73.14
2024-04-23T18:06:20.238Z,72.44
2024-04-23T18:08:46.917Z,72.69
2024-04-23T18:11:15.908Z,72.56
2024-04-23T18:13:42.660Z,72.31
2024-04-23T18:16:10.544Z,72.38
2024-04-23T18:18:37.379Z,73.83
2024-04-23T18:21:04.650Z,75.08
2024-04-23T18:23:35.398Z,75.32
2024-04-23T18:26:02.150Z,76.79
2024-04-23T18:28:34.193Z,78.67
2024-04-23T18:31:04.875Z,78.65
2024-04-23T18:33:31.664Z,79.40
2024-04-23T18:36:05.404Z,81.02
2024-04-23T18:38:32.907Z,80.89
2024-04-23T18:41:13.422Z,82.06
2024-04-23T18:43:40.520Z,82.46
2024-04-23T18:46:17.160Z,81.65
2024-04-23T18:48:47.658Z,82.43
2024-04-23T18:51:15.057Z,83.35
2024-04-23T18:53:42.696Z,85.55
2024-04-23T18:56:13.948Z,85.83
2024-04-23T18:58:41.132Z,85.07
2024-04-23T19:01:15.340Z,86.12
2024-04-23T19:03:42.620Z,86.54
2024-04-23T19:06:12.777Z,86.75
2024-04-23T19:08:39.585Z,86.69
2024-04-23T19:11:06.387Z,85.68
2024-04-23T19:13:32.998Z,85.32
2024-04-23T19:16:09.571Z,86.46
2024-04-23T19:18:36.472Z,87.72
2024-04-23T19:21:03.461Z,88.13
2024-04-23T19:23:30.165Z,86.94
2024-04-23T19:26:01.168Z,84.65
2024-04-23T19:28:27.891Z,83.93
2024-04-23T19:30:56.005Z,83.36
2024-04-23T19:33:22.815Z,81.44
2024-04-23T19:35:51.901Z,80.88
2024-04-23T19:38:19.715Z,81.05
2024-04-23T19:40:46.472Z,80.05
2024-04-23T19:43:13.134Z,79.59
2024-04-23T19:45:39.781Z,78.14
2024-04-23T19:48:06.613Z,77.29
2024-04-23T19:50:33.213Z,76.95
2024-04-23T19:52:59.828Z,76.84
2024-04-23T19:55:26.469Z,77.12
2024-04-23T19:58:11.741Z,77.11
2024-04-23T20:00:41.277Z,77.67
2024-04-23T20:03:08.545Z,77.06
2024-04-23T20:05:36.032Z,76.44
2024-04-23T20:08:02.696Z,75.71
2024-04-23T20:10:29.394Z,75.68
2024-04-23T20:12:55.981Z,75.33
2024-04-23T20:15:22.604Z,75.46
2024-04-23T20:17:49.436Z,75.14
2024-04-23T20:20:16.230Z,75.72
2024-04-23T20:22:42.935Z,76.03
2024-04-23T20:25:09.546Z,75.87
2024-04-23T20:27:36.229Z,76.24
2024-04-23T20:30:03.723Z,76.59
2024-04-23T20:32:30.406Z,76.65
2024-04-23T20:34:57.111Z,76.27
2024-04-23T20:37:23.710Z,75.99
2024-04-23T20:39:50.354Z,76.09
2024-04-23T20:42:16.952Z,76.12
2024-04-23T20:44:43.661Z,76.00
2024-04-23T20:47:10.388Z,76.92
2024-04-23T20:49:37.044Z,77.57
2024-04-23T20:52:03.731Z,77.76
2024-04-23T20:54:30.303Z,78.03
2024-04-23T20:56:56.926Z,77.97
2024-04-23T20:59:23.952Z,78.35
2024-04-23T21:01:50.639Z,78.64
2024-04-23T21:04:17.344Z,78.55
2024-04-23T21:06:44.072Z,78.25
2024-04-23T21:09:10.943Z,77.90
2024-04-23T21:11:40.330Z,79.10
2024-04-23T21:14:07.557Z,80.60
2024-04-23T21:16:34.355Z,81.68
2024-04-23T21:19:01.056Z,81.73
2024-04-23T21:21:27.678Z,81.68
2024-04-23T21:23:54.313Z,81.06
2024-04-23T21:26:21.192Z,79.10
2024-04-23T21:28:48.107Z,76.57
2024-04-23T21:31:14.770Z,74.89
2024-04-23T21:33:41.497Z,74.61
2024-04-23T21:36:09.697Z,74.13
2024-04-23T21:38:37.748Z,73.72
2024-04-23T21:41:09.623Z,73.37
2024-04-23T21:43:37.513Z,73.12
2024-04-23T21:46:13.014Z,72.24
2024-04-23T21:48:39.741Z,72.21
2024-04-23T21:51:10.602Z,72.35
2024-04-23T21:53:37.845Z,71.92
2024-04-23T21:56:06.286Z,71.99
2024-04-23T21:58:37.800Z,71.75
2024-04-23T22:01:19.633Z,71.60
2024-04-23T22:03:47.322Z,71.17
2024-04-23T22:06:14.520Z,71.45
2024-04-23T22:08:41.516Z,71.28
2024-04-23T22:11:08.288Z,71.08
2024-04-23T22:13:35.367Z,71.04
2024-04-23T22:16:02.192Z,69.77
2024-04-23T22:18:29.037Z,70.09
2024-04-23T22:20:55.799Z,70.21
2024-04-23T22:23:25.136Z,69.01
2024-04-23T22:25:51.900Z,69.50
2024-04-23T22:28:18.718Z,69.04
2024-04-23T22:30:46.633Z,69.35
2024-04-23T22:33:13.586Z,69.72
2024-04-23T22:35:40.507Z,70.44
2024-04-23T22:38:07.144Z,71.53
2024-04-23T22:40:33.781Z,72.05
2024-04-23T22:43:00.382Z,72.55
2024-04-23T22:45:29.231Z,73.55
2024-04-23T22:47:56.128Z,73.96
2024-04-23T22:50:22.985Z,75.06
2024-04-23T22:52:49.934Z,74.95
2024-04-23T22:55:16.603Z,75.07
2024-04-23T22:57:43.264Z,74.95
2024-04-23T23:00:10.536Z,75.22
2024-04-23T23:02:37.268Z,75.15
2024-04-23T23:05:04.147Z,74.69
2024-04-23T23:07:30.859Z,74.65
2024-04-23T23:09:57.478Z,73.77
2024-04-23T23:12:24.109Z,74.10
2024-04-23T23:14:50.932Z,73.27
2024-04-23T23:17:20.557Z,72.89
2024-04-23T23:19:47.304Z,73.08
2024-04-23T23:22:13.984Z,72.92
2024-04-23T23:24:40.634Z,72.76
2024-04-23T23:27:07.279Z,73.43
2024-04-23T23:29:33.923Z,73.76
2024-04-23T23:32:00.617Z,73.66
2024-04-23T23:34:27.292Z,73.35
2024-04-23T23:36:53.924Z,72.81
2024-04-23T23:39:20.533Z,72.09
2024-04-23T23:41:47.193Z,71.64
2024-04-23T23:44:13.863Z,72.01
2024-04-23T23:46:40.695Z,71.94
2024-04-23T23:49:07.310Z,71.35
2024-04-23T23:51:34.056Z,71.38
2024-04-23T23:54:00.790Z,71.68
2024-04-23T23:56:27.393Z,72.47
2024-04-23T23:58:54.090Z,72.04
